createdAt,value
2022-09-18T00:01:14.003Z,100.00
2022-09-18T00:03:42.954Z,100.00
2022-09-18T00:06:12.992Z,100.00
2022-09-18T00:08:40.697Z,100.00
2022-09-18T00:11:10.107Z,100.00
2022-09-18T00:13:39.594Z,100.00
2022-09-18T00:16:09.158Z,100.00
2022-09-18T00:18:38.437Z,100.00
2022-09-18T00:21:07.506Z,100.00
2022-09-18T00:23:35.499Z,100.00
2022-09-18T00:26:03.288Z,100.00
2022-09-18T00:28:31.011Z,100.00
2022-09-18T00:31:05.641Z,100.00
2022-09-18T00:33:34.438Z,100.00
2022-09-18T00:36:05.244Z,100.00
2022-09-18T00:38:33.567Z,100.00
2022-09-18T00:41:02.363Z,100.00
2022-09-18T00:43:32.316Z,100.00
2022-09-18T00:46:04.116Z,100.00
2022-09-18T00:48:40.472Z,100.00
2022-09-18T00:51:10.238Z,100.00
2022-09-18T00:53:41.307Z,100.00
2022-09-18T00:56:13.574Z,100.00
2022-09-18T00:58:41.630Z,100.00
2022-09-18T01:01:09.590Z,100.00
2022-09-18T01:03:37.514Z,100.00
2022-09-18T01:06:15.595Z,100.00
2022-09-18T01:08:52.471Z,100.00
2022-09-18T01:11:36.893Z,100.00
2022-09-18T01:14:20.455Z,100.00
2022-09-18T01:16:56.305Z,100.00
2022-09-18T01:19:39.545Z,100.00
2022-09-18T01:22:22.991Z,100.00
2022-09-18T01:25:09.845Z,100.00
2022-09-18T01:28:08.571Z,100.00
2022-09-18T01:30:42.717Z,100.00
2022-09-18T01:33:19.040Z,100.00
2022-09-18T01:35:53.466Z,100.00
2022-09-18T01:38:27.825Z,100.00
2022-09-18T01:40:59.906Z,100.00
2022-09-18T01:43:31.966Z,100.00
2022-09-18T01:46:04.381Z,100.00
2022-09-18T01:48:34.942Z,100.00
2022-09-18T01:51:08.812Z,100.00
2022-09-18T01:53:43.054Z,100.00
2022-09-18T01:56:16.121Z,100.00
2022-09-18T01:58:46.065Z,100.00
2022-09-18T02:01:19.526Z,100.00
2022-09-18T02:03:52.044Z,100.00
2022-09-18T02:06:26.145Z,100.00
2022-09-18T02:08:56.730Z,100.00
2022-09-18T02:11:24.963Z,100.00
2022-09-18T02:14:00.036Z,100.00
2022-09-18T02:16:34.465Z,100.00
2022-09-18T02:19:08.928Z,100.00
2022-09-18T02:21:38.084Z,100.00
2022-09-18T02:24:10.025Z,100.00
2022-09-18T02:26:40.730Z,100.00
2022-09-18T02:29:12.746Z,100.00
2022-09-18T02:31:41.334Z,100.00
2022-09-18T02:34:11.428Z,100.00
2022-09-18T02:36:59.355Z,100.00
2022-09-18T02:39:46.769Z,100.00
2022-09-18T02:42:27.253Z,100.00
2022-09-18T02:45:02.622Z,100.00
2022-09-18T02:47:42.557Z,100.00
2022-09-18T02:50:17.465Z,100.00
2022-09-18T02:52:52.992Z,100.00
2022-09-18T02:55:27.009Z,100.00
2022-09-18T02:57:59.469Z,100.00
2022-09-18T03:00:32.147Z,100.00
2022-09-18T03:03:00.808Z,100.00
2022-09-18T03:05:28.784Z,100.00
2022-09-18T03:07:56.486Z,100.00
2022-09-18T03:10:24.255Z,100.00
2022-09-18T03:12:51.907Z,100.00
2022-09-18T03:15:19.686Z,100.00
2022-09-18T03:17:48.968Z,100.00
2022-09-18T03:20:16.718Z,100.00
2022-09-18T03:22:44.437Z,100.00
2022-09-18T03:25:13.272Z,100.00
2022-09-18T03:27:42.514Z,100.00
2022-09-18T03:30:11.071Z,100.00
2022-09-18T03:32:38.812Z,100.00
2022-09-18T03:35:09.175Z,100.00
2022-09-18T03:37:36.974Z,100.00
2022-09-18T03:40:05.521Z,100.00
2022-09-18T03:42:33.275Z,100.00
2022-09-18T03:45:01.101Z,100.00
2022-09-18T03:47:31.803Z,100.00
2022-09-18T03:50:02.302Z,100.00
2022-09-18T03:52:31.536Z,100.00
2022-09-18T03:54:59.303Z,100.00
2022-09-18T03:57:27.348Z,100.00
2022-09-18T03:59:55.017Z,100.00
2022-09-18T04:02:22.746Z,100.00
2022-09-18T04:04:50.788Z,100.00
2022-09-18T04:07:19.067Z,100.00
2022-09-18T04:09:48.430Z,100.00
2022-09-18T04:12:16.177Z,100.00
2022-09-18T04:14:44.011Z,100.00
2022-09-18T04:17:12.437Z,100.00
2022-09-18T04:19:40.236Z,100.00
2022-09-18T04:22:07.989Z,100.00
2022-09-18T04:24:36.383Z,100.00
2022-09-18T04:27:05.713Z,100.00
2022-09-18T04:29:33.724Z,100.00
2022-09-18T04:32:01.414Z,100.00
2022-09-18T04:34:29.212Z,100.00
2022-09-18T04:36:56.910Z,100.00
2022-09-18T04:39:24.722Z,100.00
2022-09-18T04:41:52.845Z,100.00
2022-09-18T04:44:22.143Z,100.00
2022-09-18T04:46:50.004Z,100.00
2022-09-18T04:49:18.805Z,100.00
2022-09-18T04:51:46.761Z,100.00
2022-09-18T04:54:14.557Z,100.00
2022-09-18T04:56:42.247Z,100.00
2022-09-18T04:59:09.969Z,100.00
2022-09-18T05:01:39.139Z,100.00
2022-09-18T05:04:07.678Z,100.00
2022-09-18T05:06:35.426Z,100.00
2022-09-18T05:09:03.364Z,100.00
2022-09-18T05:11:31.139Z,100.00
2022-09-18T05:13:59.384Z,100.00
2022-09-18T05:16:27.287Z,100.00
2022-09-18T05:18:56.564Z,100.00
2022-09-18T05:21:25.080Z,100.00
2022-09-18T05:23:52.875Z,100.00
2022-09-18T05:26:20.911Z,100.00
2022-09-18T05:28:49.939Z,100.00
2022-09-18T05:31:18.083Z,100.00
2022-09-18T05:33:45.877Z,100.00
2022-09-18T05:36:15.205Z,100.00
2022-09-18T05:38:43.030Z,100.00
2022-09-18T05:41:10.936Z,100.00
2022-09-18T05:43:38.602Z,100.00
2022-09-18T05:46:07.037Z,100.00
2022-09-18T05:48:34.737Z,100.00
2022-09-18T05:51:02.461Z,100.00
2022-09-18T05:53:31.535Z,100.00
2022-09-18T05:56:01.075Z,100.00
2022-09-18T05:58:28.762Z,100.00
2022-09-18T06:00:58.794Z,100.00
2022-09-18T06:03:26.590Z,100.00
2022-09-18T06:05:55.606Z,100.00
2022-09-18T06:08:23.976Z,100.00
2022-09-18T06:10:54.714Z,100.00
2022-09-18T06:13:22.689Z,100.00
2022-09-18T06:15:52.308Z,100.00
2022-09-18T06:18:20.316Z,100.00
2022-09-18T06:20:54.307Z,100.00
2022-09-18T06:23:22.970Z,100.00
2022-09-18T06:25:56.915Z,100.00
2022-09-18T06:28:26.124Z,100.00
2022-09-18T06:30:53.858Z,100.00
2022-09-18T06:33:21.567Z,100.00
2022-09-18T06:35:49.432Z,100.00
2022-09-18T06:38:17.636Z,100.00
2022-09-18T06:40:49.951Z,100.00
2022-09-18T06:43:18.446Z,100.00
2022-09-18T06:45:52.665Z,100.00
2022-09-18T06:48:20.470Z,100.00
2022-09-18T06:50:52.978Z,100.00
2022-09-18T06:53:21.185Z,100.00
2022-09-18T06:55:49.059Z,100.00
2022-09-18T06:58:17.423Z,100.00
2022-09-18T07:00:47.359Z,100.00
2022-09-18T07:03:15.399Z,100.00
2022-09-18T07:05:45.416Z,100.00
2022-09-18T07:08:13.727Z,100.00
2022-09-18T07:10:41.823Z,100.00
2022-09-18T07:13:10.208Z,100.00
2022-09-18T07:15:37.941Z,100.00
2022-09-18T07:18:08.083Z,100.00
2022-09-18T07:20:36.154Z,98.94
2022-09-18T07:23:04.337Z,96.15
2022-09-18T07:25:34.453Z,94.02
2022-09-18T07:28:07.824Z,85.29
2022-09-18T07:30:35.670Z,84.15
2022-09-18T07:33:04.473Z,76.05
2022-09-18T07:35:34.283Z,77.85
2022-09-18T07:38:03.346Z,77.04
2022-09-18T07:40:31.313Z,79.88
2022-09-18T07:43:00.624Z,80.48
2022-09-18T07:45:28.611Z,75.32
2022-09-18T07:47:56.380Z,79.78
2022-09-18T07:50:24.419Z,85.40
2022-09-18T07:52:55.679Z,71.27
2022-09-18T07:55:24.404Z,69.93
2022-09-18T07:57:56.339Z,66.64
2022-09-18T08:00:24.128Z,69.75
2022-09-18T08:02:52.402Z,67.38
2022-09-18T08:05:20.179Z,66.12
2022-09-18T08:07:47.898Z,73.36
2022-09-18T08:10:17.390Z,69.60
2022-09-18T08:12:45.127Z,63.64
2022-09-18T08:15:12.811Z,62.93
2022-09-18T08:17:45.402Z,60.87
2022-09-18T08:20:13.068Z,62.07
2022-09-18T08:22:41.496Z,58.17
2022-09-18T08:25:10.949Z,58.38
2022-09-18T08:27:40.731Z,60.42
2022-09-18T08:30:10.649Z,61.41
2022-09-18T08:32:39.439Z,60.04
2022-09-18T08:35:08.067Z,59.89
2022-09-18T08:37:35.826Z,58.59
2022-09-18T08:40:03.736Z,56.42
2022-09-18T08:42:41.200Z,55.69
2022-09-18T08:45:32.434Z,56.36
2022-09-18T08:48:06.013Z,55.35
2022-09-18T08:50:38.690Z,54.87
2022-09-18T08:53:12.266Z,53.11
2022-09-18T08:55:43.236Z,55.03
2022-09-18T08:58:14.734Z,55.50
2022-09-18T09:00:47.839Z,49.98
2022-09-18T09:03:27.837Z,52.92
2022-09-18T09:05:59.466Z,56.54
2022-09-18T09:08:53.424Z,54.92
2022-09-18T09:11:32.470Z,52.10
2022-09-18T09:14:34.268Z,50.74
2022-09-18T09:17:18.679Z,56.41
2022-09-18T09:19:55.298Z,51.68
2022-09-18T09:22:35.505Z,52.25
2022-09-18T09:25:12.599Z,51.80
2022-09-18T09:27:45.032Z,52.20
2022-09-18T09:30:16.473Z,52.40
2022-09-18T09:32:50.666Z,50.38
2022-09-18T09:35:29.625Z,49.77
2022-09-18T09:38:01.760Z,47.62
2022-09-18T09:40:40.123Z,48.57
2022-09-18T09:43:17.636Z,49.27
2022-09-18T09:45:48.167Z,47.63
2022-09-18T09:48:25.569Z,45.72
2022-09-18T09:50:59.421Z,46.67
2022-09-18T09:53:29.027Z,49.53
2022-09-18T09:56:03.518Z,49.92
2022-09-18T09:58:41.820Z,51.31
2022-09-18T10:01:15.073Z,49.99
2022-09-18T10:03:52.469Z,48.12
2022-09-18T10:06:34.268Z,48.87
2022-09-18T10:09:06.692Z,52.34
2022-09-18T10:11:37.481Z,54.05
2022-09-18T10:14:11.284Z,53.12
2022-09-18T10:16:43.260Z,49.75
2022-09-18T10:19:16.642Z,47.37
2022-09-18T10:21:45.460Z,50.84
2022-09-18T10:24:23.304Z,50.54
2022-09-18T10:26:54.803Z,48.93
2022-09-18T10:29:22.526Z,49.22
2022-09-18T10:31:53.489Z,49.98
2022-09-18T10:34:35.305Z,51.00
2022-09-18T10:37:03.394Z,52.33
2022-09-18T10:39:32.791Z,52.72
2022-09-18T10:42:01.862Z,54.31
2022-09-18T10:44:31.871Z,54.44
2022-09-18T10:47:05.009Z,52.29
2022-09-18T10:49:37.380Z,56.14
2022-09-18T10:52:29.895Z,59.82
2022-09-18T10:55:12.593Z,55.62
2022-09-18T10:57:43.658Z,53.66
2022-09-18T11:00:48.481Z,50.78
2022-09-18T11:03:24.819Z,51.88
2022-09-18T11:05:58.497Z,55.13
2022-09-18T11:08:30.964Z,59.83
2022-09-18T11:11:05.254Z,54.48
2022-09-18T11:13:34.454Z,52.72
2022-09-18T11:16:05.409Z,51.41
2022-09-18T11:18:34.723Z,48.58
2022-09-18T11:21:06.976Z,47.00
2022-09-18T11:23:36.695Z,44.04
2022-09-18T11:26:19.389Z,41.84
2022-09-18T11:29:02.297Z,41.96
2022-09-18T11:31:44.512Z,42.27
2022-09-18T11:34:22.765Z,44.33
2022-09-18T11:36:54.294Z,47.88
2022-09-18T11:39:27.393Z,50.58
2022-09-18T11:41:56.620Z,43.45
2022-09-18T11:44:27.814Z,41.56
2022-09-18T11:47:29.870Z,38.71
2022-09-18T11:50:09.324Z,38.64
2022-09-18T11:52:42.673Z,37.85
2022-09-18T11:55:23.429Z,35.02
2022-09-18T11:57:56.881Z,35.53
2022-09-18T12:00:27.713Z,37.69
2022-09-18T12:03:06.902Z,36.53
2022-09-18T12:05:41.962Z,37.50
2022-09-18T12:08:19.266Z,36.97
2022-09-18T12:10:55.296Z,38.25
2022-09-18T12:13:40.192Z,38.56
2022-09-18T12:16:15.241Z,37.92
2022-09-18T12:18:52.310Z,35.67
2022-09-18T12:21:26.246Z,38.03
2022-09-18T12:23:55.770Z,37.83
2022-09-18T12:26:31.298Z,37.19
2022-09-18T12:29:12.890Z,38.73
2022-09-18T12:31:52.925Z,36.76
2022-09-18T12:34:31.480Z,37.35
2022-09-18T12:37:11.835Z,37.77
2022-09-18T12:40:01.892Z,37.82
2022-09-18T12:42:38.420Z,38.38
2022-09-18T12:45:32.540Z,39.66
2022-09-18T12:48:15.472Z,40.77
2022-09-18T12:50:54.923Z,44.03
2022-09-18T12:53:36.524Z,44.03
2022-09-18T12:56:19.915Z,45.40
2022-09-18T12:59:02.889Z,47.27
2022-09-18T13:01:35.981Z,48.55
2022-09-18T13:04:12.415Z,50.93
2022-09-18T13:06:46.018Z,50.87
2022-09-18T13:09:22.757Z,51.73
2022-09-18T13:12:00.267Z,54.15
2022-09-18T13:14:33.383Z,54.80
2022-09-18T13:17:09.041Z,52.43
2022-09-18T13:19:41.270Z,52.31
2022-09-18T13:22:14.234Z,51.07
2022-09-18T13:24:44.290Z,52.57
2022-09-18T13:27:17.216Z,50.41
2022-09-18T13:29:59.189Z,51.85
2022-09-18T13:32:39.668Z,54.75
2022-09-18T13:35:20.808Z,53.44
2022-09-18T13:37:49.825Z,48.91
2022-09-18T13:40:35.908Z,45.02
2022-09-18T13:43:30.618Z,47.81
2022-09-18T13:46:03.443Z,47.90
2022-09-18T13:48:36.886Z,49.66
2022-09-18T13:51:08.199Z,51.31
2022-09-18T13:53:44.316Z,49.93
2022-09-18T13:56:13.369Z,49.76
2022-09-18T13:58:54.382Z,51.17
2022-09-18T14:01:58.351Z,52.22
2022-09-18T14:05:05.642Z,53.35
2022-09-18T14:07:56.755Z,54.80
2022-09-18T14:10:31.747Z,56.82
2022-09-18T14:13:29.590Z,59.86
2022-09-18T14:16:03.730Z,62.18
2022-09-18T14:18:34.866Z,58.04
2022-09-18T14:21:19.607Z,55.43
2022-09-18T14:23:52.573Z,58.73
2022-09-18T14:27:00.814Z,59.48
2022-09-18T14:29:32.698Z,62.49
2022-09-18T14:32:03.223Z,61.77
2022-09-18T14:34:38.341Z,62.32
2022-09-18T14:37:24.526Z,62.31
2022-09-18T14:39:55.131Z,63.89
2022-09-18T14:42:32.599Z,66.11
2022-09-18T14:45:21.523Z,64.24
2022-09-18T14:47:51.028Z,66.66
2022-09-18T14:50:34.763Z,67.65
2022-09-18T14:53:05.289Z,67.72
2022-09-18T14:55:36.742Z,71.92
2022-09-18T14:58:08.373Z,70.94
2022-09-18T15:00:38.497Z,72.57
2022-09-18T15:03:15.389Z,69.03
2022-09-18T15:05:43.569Z,67.84
2022-09-18T15:08:18.259Z,83.52
2022-09-18T15:10:48.665Z,82.26
2022-09-18T15:13:17.907Z,78.68
2022-09-18T15:15:46.698Z,73.67
2022-09-18T15:18:27.455Z,73.64
2022-09-18T15:20:56.844Z,78.08
2022-09-18T15:23:28.286Z,78.63
2022-09-18T15:26:00.008Z,80.47
2022-09-18T15:28:29.221Z,79.34
2022-09-18T15:31:03.447Z,80.67
2022-09-18T15:33:35.669Z,85.98
2022-09-18T15:36:05.061Z,97.66
2022-09-18T15:38:40.297Z,97.58
2022-09-18T15:41:23.187Z,93.27
2022-09-18T15:43:51.014Z,96.43
2022-09-18T15:46:26.889Z,84.77
2022-09-18T15:49:00.442Z,100.00
2022-09-18T15:51:30.028Z,99.51
2022-09-18T15:54:09.781Z,100.00
2022-09-18T15:56:40.579Z,94.89
2022-09-18T15:59:18.578Z,95.08
2022-09-18T16:01:48.540Z,88.67
2022-09-18T16:04:20.373Z,85.92
2022-09-18T16:06:55.510Z,81.08
2022-09-18T16:09:28.151Z,83.97
2022-09-18T16:11:57.843Z,76.17
2022-09-18T16:15:00.413Z,71.95
2022-09-18T16:17:56.198Z,72.76
2022-09-18T16:20:30.033Z,73.86
2022-09-18T16:23:05.768Z,78.17
2022-09-18T16:25:37.350Z,77.30
2022-09-18T16:28:19.759Z,75.28
2022-09-18T16:30:48.528Z,75.34
2022-09-18T16:33:19.709Z,73.29
2022-09-18T16:35:56.170Z,75.12
2022-09-18T16:38:24.127Z,73.07
2022-09-18T16:40:51.780Z,74.58
2022-09-18T16:43:19.623Z,74.50
2022-09-18T16:45:48.433Z,75.68
2022-09-18T16:48:16.534Z,77.25
2022-09-18T16:50:44.269Z,76.66
2022-09-18T16:53:13.296Z,78.93
2022-09-18T16:55:44.725Z,80.36
2022-09-18T16:58:13.630Z,78.11
2022-09-18T17:00:41.447Z,79.74
2022-09-18T17:03:09.671Z,85.32
2022-09-18T17:05:37.460Z,79.82
2022-09-18T17:08:05.500Z,84.21
2022-09-18T17:10:35.352Z,83.05
2022-09-18T17:13:03.246Z,82.46
2022-09-18T17:15:31.526Z,83.11
2022-09-18T17:17:59.238Z,82.34
2022-09-18T17:20:26.964Z,92.48
2022-09-18T17:22:54.779Z,90.36
2022-09-18T17:25:22.428Z,93.86
2022-09-18T17:27:52.680Z,97.78
2022-09-18T17:30:20.817Z,90.89
2022-09-18T17:32:49.579Z,90.10
2022-09-18T17:35:18.111Z,97.94
2022-09-18T17:37:45.950Z,89.78
2022-09-18T17:40:13.788Z,93.47
2022-09-18T17:42:41.656Z,89.70
2022-09-18T17:45:11.451Z,88.05
2022-09-18T17:47:39.187Z,88.79
2022-09-18T17:50:08.450Z,92.54
2022-09-18T17:52:37.048Z,91.66
2022-09-18T17:55:05.535Z,100.00
2022-09-18T17:57:36.909Z,100.00
2022-09-18T18:00:05.913Z,100.00
2022-09-18T18:02:35.217Z,100.00
2022-09-18T18:05:02.997Z,100.00
2022-09-18T18:07:30.734Z,99.91
2022-09-18T18:09:58.764Z,100.00
2022-09-18T18:12:26.795Z,100.00
2022-09-18T18:14:54.491Z,99.11
2022-09-18T18:17:22.185Z,100.00
2022-09-18T18:19:51.656Z,100.00
2022-09-18T18:22:19.374Z,99.25
2022-09-18T18:24:49.593Z,94.29
2022-09-18T18:27:20.739Z,94.36
2022-09-18T18:29:52.427Z,100.00
2022-09-18T18:32:20.783Z,98.37
2022-09-18T18:34:49.878Z,96.79
2022-09-18T18:37:19.738Z,88.36
2022-09-18T18:39:48.665Z,87.29
2022-09-18T18:42:16.425Z,84.11
2022-09-18T18:44:44.094Z,86.77
2022-09-18T18:47:11.850Z,85.24
2022-09-18T18:49:40.172Z,86.99
2022-09-18T18:52:07.885Z,85.64
2022-09-18T18:54:37.071Z,86.74
2022-09-18T18:57:05.911Z,86.53
2022-09-18T18:59:33.701Z,87.29
2022-09-18T19:02:02.226Z,85.21
2022-09-18T19:04:30.695Z,89.06
2022-09-18T19:06:58.792Z,88.86
2022-09-18T19:09:29.514Z,93.00
2022-09-18T19:11:58.934Z,86.79
2022-09-18T19:14:28.953Z,88.27
2022-09-18T19:16:56.888Z,86.84
2022-09-18T19:19:26.735Z,87.78
2022-09-18T19:21:54.709Z,87.99
2022-09-18T19:24:22.729Z,91.53
2022-09-18T19:26:50.481Z,91.15
2022-09-18T19:29:21.623Z,90.53
2022-09-18T19:31:50.433Z,91.91
2022-09-18T19:34:19.906Z,93.24
2022-09-18T19:36:49.903Z,94.45
2022-09-18T19:39:18.893Z,91.49
2022-09-18T19:41:51.299Z,87.60
2022-09-18T19:44:26.834Z,88.22
2022-09-18T19:46:56.615Z,87.21
2022-09-18T19:49:29.854Z,90.59
2022-09-18T19:51:57.728Z,87.50
2022-09-18T19:54:25.438Z,87.91
2022-09-18T19:56:53.130Z,88.22
2022-09-18T19:59:22.246Z,87.81
2022-09-18T20:01:50.116Z,87.38
2022-09-18T20:04:17.909Z,86.01
2022-09-18T20:06:45.633Z,87.83
2022-09-18T20:09:13.378Z,87.56
2022-09-18T20:11:42.205Z,85.89
2022-09-18T20:14:11.276Z,84.28
2022-09-18T20:16:40.460Z,83.59
2022-09-18T20:19:08.196Z,82.08
2022-09-18T20:21:35.886Z,83.42
2022-09-18T20:24:03.561Z,84.01
2022-09-18T20:26:31.400Z,83.02
2022-09-18T20:28:59.224Z,83.37
2022-09-18T20:31:27.040Z,81.53
2022-09-18T20:33:56.943Z,80.11
2022-09-18T20:36:25.692Z,82.67
2022-09-18T20:38:57.928Z,80.07
2022-09-18T20:41:29.899Z,85.71
2022-09-18T20:44:01.142Z,80.22
2022-09-18T20:46:29.119Z,79.62
2022-09-18T20:49:00.939Z,83.62
2022-09-18T20:51:32.444Z,82.42
2022-09-18T20:54:00.337Z,85.96
2022-09-18T20:56:32.077Z,80.81
2022-09-18T20:59:04.832Z,79.93
2022-09-18T21:01:35.230Z,80.14
2022-09-18T21:04:04.708Z,81.50
2022-09-18T21:06:34.344Z,83.27
2022-09-18T21:09:06.403Z,85.95
2022-09-18T21:11:37.669Z,82.50
2022-09-18T21:14:07.285Z,91.82
2022-09-18T21:16:40.400Z,88.87
2022-09-18T21:19:11.838Z,88.68
2022-09-18T21:21:39.845Z,99.13
2022-09-18T21:24:09.201Z,100.00
2022-09-18T21:26:39.003Z,93.56
2022-09-18T21:29:08.783Z,89.02
2022-09-18T21:31:38.405Z,85.25
2022-09-18T21:34:06.298Z,86.59
2022-09-18T21:36:38.482Z,86.15
2022-09-18T21:39:07.342Z,85.17
2022-09-18T21:41:38.653Z,82.11
2022-09-18T21:44:08.833Z,93.81
2022-09-18T21:46:38.383Z,85.71
2022-09-18T21:49:08.702Z,100.00
2022-09-18T21:51:41.134Z,91.18
2022-09-18T21:54:14.200Z,93.52
2022-09-18T21:56:42.626Z,83.55
2022-09-18T21:59:10.757Z,88.07
2022-09-18T22:01:38.975Z,87.34
2022-09-18T22:04:07.390Z,94.08
2022-09-18T22:06:40.730Z,96.28
2022-09-18T22:09:10.167Z,100.00
2022-09-18T22:11:39.242Z,100.00
2022-09-18T22:14:09.603Z,100.00
2022-09-18T22:16:38.170Z,100.00
2022-09-18T22:19:08.161Z,100.00
2022-09-18T22:21:39.119Z,100.00
2022-09-18T22:24:08.811Z,100.00
2022-09-18T22:26:39.402Z,100.00
2022-09-18T22:29:08.811Z,100.00
2022-09-18T22:31:37.325Z,100.00
2022-09-18T22:34:06.135Z,100.00
2022-09-18T22:36:34.391Z,100.00
2022-09-18T22:39:03.485Z,100.00
2022-09-18T22:41:31.162Z,100.00
2022-09-18T22:43:59.266Z,100.00
2022-09-18T22:46:27.358Z,100.00
2022-09-18T22:48:55.627Z,99.67
2022-09-18T22:51:27.173Z,100.00
2022-09-18T22:53:56.519Z,100.00
2022-09-18T22:56:27.357Z,100.00
2022-09-18T22:58:57.058Z,100.00
2022-09-18T23:01:30.345Z,99.38
2022-09-18T23:03:59.398Z,100.00
2022-09-18T23:06:28.066Z,100.00
2022-09-18T23:08:57.842Z,94.48
2022-09-18T23:11:28.899Z,100.00
2022-09-18T23:13:58.540Z,98.05
2022-09-18T23:16:28.976Z,97.91
2022-09-18T23:18:59.001Z,100.00
2022-09-18T23:21:28.765Z,100.00
2022-09-18T23:23:57.484Z,100.00
2022-09-18T23:26:29.363Z,100.00
2022-09-18T23:28:59.020Z,100.00
2022-09-18T23:31:28.472Z,100.00
2022-09-18T23:33:58.509Z,100.00
2022-09-18T23:36:28.245Z,100.00
2022-09-18T23:38:57.949Z,100.00
2022-09-18T23:41:29.678Z,100.00
2022-09-18T23:43:57.856Z,100.00
2022-09-18T23:46:25.591Z,100.00
2022-09-18T23:48:55.685Z,100.00
2022-09-18T23:51:24.599Z,100.00
2022-09-18T23:53:52.676Z,100.00
2022-09-18T23:56:20.336Z,100.00
2022-09-18T23:58:54.251Z,100.00
